sensor_id;sensor_type;location;lat;lon;timestamp;P1;durP1;ratioP1;P2;durP2;ratioP2
78877;SDS011;68257;43.514;1.498;2023-03-02T00:00:27;12.57;;;8.00;;
78877;SDS011;68257;43.514;1.498;2023-03-02T00:02:53;14.83;;;8.53;;
78877;SDS011;68257;43.514;1.498;2023-03-02T00:05:18;13.17;;;8.10;;
78877;SDS011;68257;43.514;1.498;2023-03-02T00:07:44;14.13;;;8.20;;
78877;SDS011;68257;43.514;1.498;2023-03-02T00:10:09;12.43;;;8.15;;
78877;SDS011;68257;43.514;1.498;2023-03-02T00:12:35;12.50;;;8.67;;
78877;SDS011;68257;43.514;1.498;2023-03-02T00:15:00;15.43;;;8.77;;
78877;SDS011;68257;43.514;1.498;2023-03-02T00:17:26;13.17;;;8.20;;
78877;SDS011;68257;43.514;1.498;2023-03-02T00:19:54;14.80;;;9.00;;
78877;SDS011;68257;43.514;1.498;2023-03-02T00:22:34;14.45;;;8.40;;
78877;SDS011;68257;43.514;1.498;2023-03-02T00:25:00;13.30;;;9.13;;
78877;SDS011;68257;43.514;1.498;2023-03-02T00:27:26;15.98;;;8.32;;
78877;SDS011;68257;43.514;1.498;2023-03-02T00:29:54;21.03;;;10.30;;
78877;SDS011;68257;43.514;1.498;2023-03-02T00:32:20;18.73;;;10.00;;
78877;SDS011;68257;43.514;1.498;2023-03-02T00:34:45;18.17;;;9.73;;
78877;SDS011;68257;43.514;1.498;2023-03-02T00:37:11;17.73;;;10.30;;
78877;SDS011;68257;43.514;1.498;2023-03-02T00:39:36;18.80;;;9.50;;
78877;SDS011;68257;43.514;1.498;2023-03-02T00:42:02;13.60;;;8.73;;
78877;SDS011;68257;43.514;1.498;2023-03-02T00:44:27;13.20;;;8.20;;
78877;SDS011;68257;43.514;1.498;2023-03-02T00:46:52;17.88;;;9.18;;
78877;SDS011;68257;43.514;1.498;2023-03-02T00:49:18;14.95;;;8.88;;
78877;SDS011;68257;43.514;1.498;2023-03-02T00:51:43;12.73;;;8.47;;
78877;SDS011;68257;43.514;1.498;2023-03-02T00:54:09;12.57;;;8.20;;
78877;SDS011;68257;43.514;1.498;2023-03-02T00:56:34;16.13;;;9.20;;
78877;SDS011;68257;43.514;1.498;2023-03-02T00:59:03;15.13;;;9.70;;
78877;SDS011;68257;43.514;1.498;2023-03-02T01:01:29;14.32;;;8.98;;
78877;SDS011;68257;43.514;1.498;2023-03-02T01:03:55;14.63;;;8.83;;
78877;SDS011;68257;43.514;1.498;2023-03-02T01:06:20;16.48;;;9.23;;
78877;SDS011;68257;43.514;1.498;2023-03-02T01:08:46;15.05;;;9.68;;
78877;SDS011;68257;43.514;1.498;2023-03-02T01:11:15;14.40;;;9.10;;
78877;SDS011;68257;43.514;1.498;2023-03-02T01:13:42;13.68;;;9.13;;
78877;SDS011;68257;43.514;1.498;2023-03-02T01:16:08;15.23;;;7.97;;
78877;SDS011;68257;43.514;1.498;2023-03-02T01:18:33;14.48;;;9.43;;
78877;SDS011;68257;43.514;1.498;2023-03-02T01:21:03;14.70;;;9.15;;
78877;SDS011;68257;43.514;1.498;2023-03-02T01:23:30;15.70;;;9.33;;
78877;SDS011;68257;43.514;1.498;2023-03-02T01:25:55;20.20;;;9.32;;
78877;SDS011;68257;43.514;1.498;2023-03-02T01:28:22;14.77;;;8.93;;
78877;SDS011;68257;43.514;1.498;2023-03-02T01:30:47;13.95;;;8.88;;
78877;SDS011;68257;43.514;1.498;2023-03-02T01:33:13;15.33;;;8.80;;
78877;SDS011;68257;43.514;1.498;2023-03-02T01:35:39;13.70;;;8.63;;
78877;SDS011;68257;43.514;1.498;2023-03-02T01:38:04;14.25;;;8.48;;
78877;SDS011;68257;43.514;1.498;2023-03-02T01:40:29;15.32;;;9.18;;
78877;SDS011;68257;43.514;1.498;2023-03-02T01:42:56;15.13;;;8.60;;
78877;SDS011;68257;43.514;1.498;2023-03-02T01:48:10;14.63;;;8.53;;
78877;SDS011;68257;43.514;1.498;2023-03-02T01:50:36;14.63;;;8.70;;
78877;SDS011;68257;43.514;1.498;2023-03-02T01:53:02;15.60;;;9.67;;
78877;SDS011;68257;43.514;1.498;2023-03-02T01:55:28;15.15;;;9.55;;
78877;SDS011;68257;43.514;1.498;2023-03-02T01:57:56;16.50;;;9.43;;
78877;SDS011;68257;43.514;1.498;2023-03-02T02:00:23;17.67;;;9.50;;
78877;SDS011;68257;43.514;1.498;2023-03-02T02:02:50;15.50;;;9.32;;
78877;SDS011;68257;43.514;1.498;2023-03-02T02:05:18;14.27;;;8.68;;
78877;SDS011;68257;43.514;1.498;2023-03-02T02:07:46;15.48;;;9.63;;
78877;SDS011;68257;43.514;1.498;2023-03-02T02:10:11;16.67;;;9.17;;
78877;SDS011;68257;43.514;1.498;2023-03-02T02:12:37;16.93;;;9.63;;
78877;SDS011;68257;43.514;1.498;2023-03-02T02:15:03;16.23;;;9.97;;
78877;SDS011;68257;43.514;1.498;2023-03-02T02:17:29;14.55;;;9.25;;
78877;SDS011;68257;43.514;1.498;2023-03-02T02:28:21;15.25;;;9.32;;
78877;SDS011;68257;43.514;1.498;2023-03-02T02:33:37;14.57;;;8.27;;
78877;SDS011;68257;43.514;1.498;2023-03-02T02:36:06;15.50;;;9.00;;
78877;SDS011;68257;43.514;1.498;2023-03-02T02:38:33;12.20;;;7.73;;
78877;SDS011;68257;43.514;1.498;2023-03-02T02:40:59;15.93;;;9.23;;
78877;SDS011;68257;43.514;1.498;2023-03-02T02:43:27;16.52;;;10.25;;
78877;SDS011;68257;43.514;1.498;2023-03-02T02:45:55;15.27;;;9.57;;
78877;SDS011;68257;43.514;1.498;2023-03-02T02:48:22;17.03;;;9.87;;
78877;SDS011;68257;43.514;1.498;2023-03-02T02:50:49;13.63;;;9.25;;
78877;SDS011;68257;43.514;1.498;2023-03-02T02:53:25;12.68;;;8.40;;
78877;SDS011;68257;43.514;1.498;2023-03-02T02:55:53;15.05;;;8.48;;
78877;SDS011;68257;43.514;1.498;2023-03-02T02:58:32;13.38;;;7.90;;
78877;SDS011;68257;43.514;1.498;2023-03-02T03:00:59;11.63;;;6.93;;
78877;SDS011;68257;43.514;1.498;2023-03-02T03:03:32;12.35;;;7.95;;
78877;SDS011;68257;43.514;1.498;2023-03-02T03:06:00;12.38;;;6.50;;
78877;SDS011;68257;43.514;1.498;2023-03-02T03:11:25;16.40;;;8.93;;
78877;SDS011;68257;43.514;1.498;2023-03-02T03:13:53;16.60;;;9.40;;
78877;SDS011;68257;43.514;1.498;2023-03-02T03:16:21;17.23;;;10.02;;
78877;SDS011;68257;43.514;1.498;2023-03-02T03:18:48;15.57;;;9.60;;
78877;SDS011;68257;43.514;1.498;2023-03-02T03:21:16;15.90;;;9.45;;
78877;SDS011;68257;43.514;1.498;2023-03-02T03:23:44;14.67;;;10.13;;
78877;SDS011;68257;43.514;1.498;2023-03-02T03:26:10;14.88;;;9.85;;
78877;SDS011;68257;43.514;1.498;2023-03-02T03:28:35;17.37;;;9.73;;
78877;SDS011;68257;43.514;1.498;2023-03-02T03:31:01;15.80;;;9.57;;
78877;SDS011;68257;43.514;1.498;2023-03-02T03:33:27;13.70;;;8.27;;
78877;SDS011;68257;43.514;1.498;2023-03-02T03:35:52;17.08;;;10.10;;
78877;SDS011;68257;43.514;1.498;2023-03-02T03:38:18;14.50;;;9.48;;
78877;SDS011;68257;43.514;1.498;2023-03-02T03:40:43;15.00;;;8.80;;
78877;SDS011;68257;43.514;1.498;2023-03-02T03:43:09;16.13;;;9.13;;
78877;SDS011;68257;43.514;1.498;2023-03-02T03:45:36;14.85;;;9.20;;
78877;SDS011;68257;43.514;1.498;2023-03-02T03:48:01;15.27;;;9.00;;
78877;SDS011;68257;43.514;1.498;2023-03-02T03:50:27;17.97;;;10.00;;
78877;SDS011;68257;43.514;1.498;2023-03-02T03:52:52;14.53;;;9.73;;
78877;SDS011;68257;43.514;1.498;2023-03-02T03:55:18;12.87;;;6.93;;
78877;SDS011;68257;43.514;1.498;2023-03-02T03:57:44;15.77;;;9.45;;
78877;SDS011;68257;43.514;1.498;2023-03-02T04:00:11;15.87;;;9.90;;
78877;SDS011;68257;43.514;1.498;2023-03-02T04:02:39;16.08;;;9.57;;
78877;SDS011;68257;43.514;1.498;2023-03-02T04:05:05;13.35;;;8.27;;
78877;SDS011;68257;43.514;1.498;2023-03-02T04:07:36;13.73;;;7.85;;
78877;SDS011;68257;43.514;1.498;2023-03-02T04:10:03;12.60;;;7.75;;
78877;SDS011;68257;43.514;1.498;2023-03-02T04:12:30;13.47;;;8.33;;
78877;SDS011;68257;43.514;1.498;2023-03-02T04:14:56;14.15;;;9.23;;
78877;SDS011;68257;43.514;1.498;2023-03-02T04:17:22;15.35;;;9.10;;
78877;SDS011;68257;43.514;1.498;2023-03-02T04:19:47;14.18;;;9.13;;
78877;SDS011;68257;43.514;1.498;2023-03-02T04:22:13;13.80;;;8.43;;
78877;SDS011;68257;43.514;1.498;2023-03-02T04:24:40;14.85;;;9.20;;
78877;SDS011;68257;43.514;1.498;2023-03-02T04:27:05;14.70;;;8.47;;
78877;SDS011;68257;43.514;1.498;2023-03-02T04:29:31;15.85;;;7.43;;
78877;SDS011;68257;43.514;1.498;2023-03-02T04:31:57;11.47;;;7.37;;
78877;SDS011;68257;43.514;1.498;2023-03-02T04:34:22;14.07;;;8.63;;
78877;SDS011;68257;43.514;1.498;2023-03-02T04:36:49;15.50;;;8.93;;
78877;SDS011;68257;43.514;1.498;2023-03-02T04:39:15;14.43;;;8.75;;
78877;SDS011;68257;43.514;1.498;2023-03-02T04:41:42;13.20;;;8.73;;
78877;SDS011;68257;43.514;1.498;2023-03-02T04:44:07;12.43;;;7.28;;
78877;SDS011;68257;43.514;1.498;2023-03-02T04:46:33;12.93;;;8.77;;
78877;SDS011;68257;43.514;1.498;2023-03-02T04:48:58;14.63;;;8.23;;
78877;SDS011;68257;43.514;1.498;2023-03-02T04:51:25;13.43;;;9.40;;
78877;SDS011;68257;43.514;1.498;2023-03-02T04:53:55;13.55;;;9.05;;
78877;SDS011;68257;43.514;1.498;2023-03-02T04:56:22;14.80;;;8.90;;
78877;SDS011;68257;43.514;1.498;2023-03-02T04:58:48;14.77;;;8.95;;
78877;SDS011;68257;43.514;1.498;2023-03-02T05:01:15;13.85;;;7.97;;
78877;SDS011;68257;43.514;1.498;2023-03-02T05:03:42;15.07;;;9.10;;
78877;SDS011;68257;43.514;1.498;2023-03-02T05:06:07;14.80;;;8.90;;
78877;SDS011;68257;43.514;1.498;2023-03-02T05:08:33;14.45;;;8.82;;
78877;SDS011;68257;43.514;1.498;2023-03-02T05:10:59;13.60;;;8.30;;
78877;SDS011;68257;43.514;1.498;2023-03-02T05:13:25;14.55;;;8.95;;
78877;SDS011;68257;43.514;1.498;2023-03-02T05:15:50;15.70;;;8.95;;
78877;SDS011;68257;43.514;1.498;2023-03-02T05:18:17;14.07;;;8.50;;
78877;SDS011;68257;43.514;1.498;2023-03-02T05:20:43;14.40;;;8.70;;
78877;SDS011;68257;43.514;1.498;2023-03-02T05:23:09;14.77;;;8.87;;
78877;SDS011;68257;43.514;1.498;2023-03-02T05:25:35;14.30;;;8.73;;
78877;SDS011;68257;43.514;1.498;2023-03-02T05:28:02;13.80;;;8.10;;
78877;SDS011;68257;43.514;1.498;2023-03-02T05:30:28;12.80;;;8.25;;
78877;SDS011;68257;43.514;1.498;2023-03-02T05:32:54;17.55;;;9.40;;
78877;SDS011;68257;43.514;1.498;2023-03-02T05:35:20;14.33;;;9.20;;
78877;SDS011;68257;43.514;1.498;2023-03-02T05:37:46;16.73;;;11.10;;
78877;SDS011;68257;43.514;1.498;2023-03-02T05:40:12;14.87;;;9.30;;
78877;SDS011;68257;43.514;1.498;2023-03-02T05:42:40;15.38;;;8.68;;
78877;SDS011;68257;43.514;1.498;2023-03-02T05:45:06;17.85;;;9.43;;
78877;SDS011;68257;43.514;1.498;2023-03-02T05:47:33;15.48;;;8.73;;
78877;SDS011;68257;43.514;1.498;2023-03-02T05:49:58;13.87;;;8.77;;
78877;SDS011;68257;43.514;1.498;2023-03-02T05:52:24;14.27;;;8.47;;
78877;SDS011;68257;43.514;1.498;2023-03-02T05:54:50;13.95;;;9.05;;
78877;SDS011;68257;43.514;1.498;2023-03-02T05:57:15;13.30;;;8.80;;
78877;SDS011;68257;43.514;1.498;2023-03-02T05:59:41;14.63;;;9.10;;
78877;SDS011;68257;43.514;1.498;2023-03-02T06:02:06;16.52;;;8.70;;
78877;SDS011;68257;43.514;1.498;2023-03-02T06:04:31;14.18;;;8.93;;
78877;SDS011;68257;43.514;1.498;2023-03-02T06:06:57;16.23;;;9.47;;
78877;SDS011;68257;43.514;1.498;2023-03-02T06:09:22;12.40;;;7.93;;
78877;SDS011;68257;43.514;1.498;2023-03-02T06:11:48;14.43;;;8.60;;
78877;SDS011;68257;43.514;1.498;2023-03-02T06:14:13;19.47;;;14.13;;
78877;SDS011;68257;43.514;1.498;2023-03-02T06:16:39;16.63;;;9.10;;
78877;SDS011;68257;43.514;1.498;2023-03-02T06:19:04;15.10;;;8.73;;
78877;SDS011;68257;43.514;1.498;2023-03-02T06:21:30;14.00;;;8.50;;
78877;SDS011;68257;43.514;1.498;2023-03-02T06:23:55;15.02;;;8.85;;
78877;SDS011;68257;43.514;1.498;2023-03-02T06:26:21;14.63;;;9.23;;
78877;SDS011;68257;43.514;1.498;2023-03-02T06:28:46;12.43;;;8.03;;
78877;SDS011;68257;43.514;1.498;2023-03-02T06:31:12;15.03;;;9.07;;
78877;SDS011;68257;43.514;1.498;2023-03-02T06:33:37;12.77;;;7.43;;
78877;SDS011;68257;43.514;1.498;2023-03-02T06:36:02;13.35;;;8.43;;
78877;SDS011;68257;43.514;1.498;2023-03-02T06:38:28;13.98;;;8.73;;
78877;SDS011;68257;43.514;1.498;2023-03-02T06:40:53;13.73;;;8.60;;
78877;SDS011;68257;43.514;1.498;2023-03-02T06:43:19;16.57;;;8.47;;
78877;SDS011;68257;43.514;1.498;2023-03-02T06:45:44;14.07;;;8.90;;
78877;SDS011;68257;43.514;1.498;2023-03-02T06:48:10;12.52;;;8.13;;
78877;SDS011;68257;43.514;1.498;2023-03-02T06:50:35;14.07;;;7.73;;
78877;SDS011;68257;43.514;1.498;2023-03-02T06:53:00;16.23;;;8.93;;
78877;SDS011;68257;43.514;1.498;2023-03-02T06:55:26;15.15;;;7.80;;
78877;SDS011;68257;43.514;1.498;2023-03-02T06:57:52;12.43;;;7.88;;
78877;SDS011;68257;43.514;1.498;2023-03-02T07:00:17;13.93;;;8.37;;
78877;SDS011;68257;43.514;1.498;2023-03-02T07:02:49;14.00;;;8.07;;
78877;SDS011;68257;43.514;1.498;2023-03-02T07:05:15;14.82;;;8.13;;
78877;SDS011;68257;43.514;1.498;2023-03-02T07:07:41;12.07;;;6.93;;
78877;SDS011;68257;43.514;1.498;2023-03-02T07:10:06;14.23;;;7.63;;
78877;SDS011;68257;43.514;1.498;2023-03-02T07:12:32;13.80;;;8.00;;
78877;SDS011;68257;43.514;1.498;2023-03-02T07:14:58;13.43;;;7.57;;
78877;SDS011;68257;43.514;1.498;2023-03-02T07:17:23;13.98;;;8.38;;
78877;SDS011;68257;43.514;1.498;2023-03-02T07:19:49;13.73;;;9.03;;
78877;SDS011;68257;43.514;1.498;2023-03-02T07:22:14;13.27;;;7.73;;
78877;SDS011;68257;43.514;1.498;2023-03-02T07:24:39;12.30;;;7.60;;
78877;SDS011;68257;43.514;1.498;2023-03-02T07:27:05;9.90;;;6.27;;
78877;SDS011;68257;43.514;1.498;2023-03-02T07:29:30;13.82;;;7.90;;
78877;SDS011;68257;43.514;1.498;2023-03-02T07:31:56;12.63;;;7.75;;
78877;SDS011;68257;43.514;1.498;2023-03-02T07:34:24;11.10;;;6.87;;
78877;SDS011;68257;43.514;1.498;2023-03-02T07:36:50;14.48;;;7.53;;
78877;SDS011;68257;43.514;1.498;2023-03-02T07:39:16;13.57;;;9.48;;
78877;SDS011;68257;43.514;1.498;2023-03-02T07:41:42;13.02;;;7.65;;
78877;SDS011;68257;43.514;1.498;2023-03-02T07:44:08;11.37;;;8.00;;
78877;SDS011;68257;43.514;1.498;2023-03-02T07:46:33;13.17;;;7.80;;
78877;SDS011;68257;43.514;1.498;2023-03-02T07:48:59;11.73;;;7.40;;
78877;SDS011;68257;43.514;1.498;2023-03-02T07:51:24;15.50;;;7.47;;
78877;SDS011;68257;43.514;1.498;2023-03-02T07:53:50;12.80;;;6.67;;
78877;SDS011;68257;43.514;1.498;2023-03-02T07:56:15;13.10;;;8.30;;
78877;SDS011;68257;43.514;1.498;2023-03-02T07:58:41;12.73;;;8.45;;
78877;SDS011;68257;43.514;1.498;2023-03-02T08:01:06;14.30;;;8.57;;
78877;SDS011;68257;43.514;1.498;2023-03-02T08:03:32;12.73;;;7.97;;
78877;SDS011;68257;43.514;1.498;2023-03-02T08:06:02;13.40;;;7.60;;
78877;SDS011;68257;43.514;1.498;2023-03-02T08:08:35;13.27;;;7.72;;
78877;SDS011;68257;43.514;1.498;2023-03-02T08:11:08;12.48;;;7.88;;
78877;SDS011;68257;43.514;1.498;2023-03-02T08:13:34;12.05;;;7.47;;
78877;SDS011;68257;43.514;1.498;2023-03-02T08:16:01;13.13;;;7.87;;
78877;SDS011;68257;43.514;1.498;2023-03-02T08:18:28;12.55;;;7.63;;
78877;SDS011;68257;43.514;1.498;2023-03-02T08:20:53;16.47;;;8.33;;
78877;SDS011;68257;43.514;1.498;2023-03-02T08:23:19;13.25;;;8.55;;
78877;SDS011;68257;43.514;1.498;2023-03-02T08:25:45;14.40;;;7.87;;
78877;SDS011;68257;43.514;1.498;2023-03-02T08:28:10;11.43;;;7.20;;
78877;SDS011;68257;43.514;1.498;2023-03-02T08:30:36;15.18;;;7.75;;
78877;SDS011;68257;43.514;1.498;2023-03-02T08:33:01;14.60;;;8.03;;
78877;SDS011;68257;43.514;1.498;2023-03-02T08:35:27;13.00;;;7.80;;
78877;SDS011;68257;43.514;1.498;2023-03-02T08:37:52;16.05;;;9.18;;
78877;SDS011;68257;43.514;1.498;2023-03-02T08:40:18;10.55;;;7.10;;
78877;SDS011;68257;43.514;1.498;2023-03-02T08:42:43;13.63;;;8.50;;
78877;SDS011;68257;43.514;1.498;2023-03-02T08:45:09;14.33;;;7.80;;
78877;SDS011;68257;43.514;1.498;2023-03-02T08:47:34;14.68;;;7.95;;
78877;SDS011;68257;43.514;1.498;2023-03-02T08:50:00;12.77;;;8.30;;
78877;SDS011;68257;43.514;1.498;2023-03-02T08:52:25;13.97;;;9.10;;
78877;SDS011;68257;43.514;1.498;2023-03-02T08:54:51;13.27;;;7.93;;
78877;SDS011;68257;43.514;1.498;2023-03-02T08:57:16;16.40;;;8.10;;
78877;SDS011;68257;43.514;1.498;2023-03-02T08:59:41;14.07;;;8.00;;
78877;SDS011;68257;43.514;1.498;2023-03-02T09:02:09;13.93;;;7.90;;
78877;SDS011;68257;43.514;1.498;2023-03-02T09:04:35;12.88;;;7.75;;
78877;SDS011;68257;43.514;1.498;2023-03-02T09:07:00;13.27;;;8.27;;
78877;SDS011;68257;43.514;1.498;2023-03-02T09:09:26;11.90;;;7.43;;
78877;SDS011;68257;43.514;1.498;2023-03-02T09:11:51;13.73;;;8.23;;
78877;SDS011;68257;43.514;1.498;2023-03-02T09:14:16;14.07;;;9.00;;
78877;SDS011;68257;43.514;1.498;2023-03-02T09:16:42;11.47;;;7.37;;
78877;SDS011;68257;43.514;1.498;2023-03-02T09:19:10;13.18;;;7.22;;
78877;SDS011;68257;43.514;1.498;2023-03-02T09:21:36;14.60;;;8.40;;
78877;SDS011;68257;43.514;1.498;2023-03-02T09:24:02;10.83;;;6.07;;
78877;SDS011;68257;43.514;1.498;2023-03-02T09:26:27;13.87;;;8.60;;
78877;SDS011;68257;43.514;1.498;2023-03-02T09:28:53;13.85;;;10.23;;
78877;SDS011;68257;43.514;1.498;2023-03-02T09:31:19;14.00;;;8.77;;
78877;SDS011;68257;43.514;1.498;2023-03-02T09:33:45;13.93;;;8.32;;
78877;SDS011;68257;43.514;1.498;2023-03-02T09:36:11;11.87;;;7.83;;
78877;SDS011;68257;43.514;1.498;2023-03-02T09:38:43;15.25;;;9.50;;
78877;SDS011;68257;43.514;1.498;2023-03-02T09:46:51;15.63;;;9.40;;
78877;SDS011;68257;43.514;1.498;2023-03-02T09:52:34;17.85;;;9.60;;
78877;SDS011;68257;43.514;1.498;2023-03-02T09:55:23;14.40;;;8.68;;
78877;SDS011;68257;43.514;1.498;2023-03-02T09:57:48;14.07;;;8.82;;
78877;SDS011;68257;43.514;1.498;2023-03-02T10:00:26;15.50;;;10.02;;
78877;SDS011;68257;43.514;1.498;2023-03-02T10:02:54;14.57;;;9.63;;
78877;SDS011;68257;43.514;1.498;2023-03-02T10:05:26;16.42;;;9.30;;
78877;SDS011;68257;43.514;1.498;2023-03-02T10:07:55;14.35;;;8.20;;
78877;SDS011;68257;43.514;1.498;2023-03-02T10:10:41;14.67;;;10.07;;
78877;SDS011;68257;43.514;1.498;2023-03-02T10:13:25;18.88;;;9.90;;
78877;SDS011;68257;43.514;1.498;2023-03-02T10:18:29;15.73;;;9.77;;
78877;SDS011;68257;43.514;1.498;2023-03-02T10:21:24;16.95;;;9.75;;
78877;SDS011;68257;43.514;1.498;2023-03-02T10:23:54;15.33;;;9.77;;
78877;SDS011;68257;43.514;1.498;2023-03-02T10:26:57;15.93;;;10.45;;
78877;SDS011;68257;43.514;1.498;2023-03-02T10:31:42;14.53;;;9.87;;
78877;SDS011;68257;43.514;1.498;2023-03-02T10:34:09;18.67;;;11.33;;
78877;SDS011;68257;43.514;1.498;2023-03-02T10:36:38;17.05;;;11.38;;
78877;SDS011;68257;43.514;1.498;2023-03-02T10:39:06;16.33;;;10.52;;
78877;SDS011;68257;43.514;1.498;2023-03-02T10:41:36;17.52;;;11.63;;
78877;SDS011;68257;43.514;1.498;2023-03-02T10:47:01;18.27;;;11.07;;
78877;SDS011;68257;43.514;1.498;2023-03-02T10:49:27;17.08;;;11.52;;
78877;SDS011;68257;43.514;1.498;2023-03-02T10:52:13;19.50;;;10.93;;
78877;SDS011;68257;43.514;1.498;2023-03-02T10:54:40;18.23;;;11.60;;
78877;SDS011;68257;43.514;1.498;2023-03-02T11:00:12;19.88;;;12.48;;
78877;SDS011;68257;43.514;1.498;2023-03-02T11:02:46;18.27;;;12.02;;
78877;SDS011;68257;43.514;1.498;2023-03-02T11:07:50;19.93;;;12.23;;
78877;SDS011;68257;43.514;1.498;2023-03-02T11:10:19;21.63;;;13.33;;
78877;SDS011;68257;43.514;1.498;2023-03-02T11:12:46;20.88;;;13.60;;
78877;SDS011;68257;43.514;1.498;2023-03-02T11:15:15;21.95;;;13.30;;
78877;SDS011;68257;43.514;1.498;2023-03-02T11:17:40;19.17;;;12.43;;
78877;SDS011;68257;43.514;1.498;2023-03-02T11:20:12;19.23;;;12.68;;
78877;SDS011;68257;43.514;1.498;2023-03-02T11:22:43;17.20;;;11.77;;
78877;SDS011;68257;43.514;1.498;2023-03-02T11:25:34;20.67;;;13.65;;
78877;SDS011;68257;43.514;1.498;2023-03-02T11:28:11;21.10;;;13.57;;
78877;SDS011;68257;43.514;1.498;2023-03-02T11:31:01;21.23;;;12.82;;
78877;SDS011;68257;43.514;1.498;2023-03-02T11:33:33;19.75;;;12.95;;
78877;SDS011;68257;43.514;1.498;2023-03-02T11:36:22;23.60;;;13.77;;
78877;SDS011;68257;43.514;1.498;2023-03-02T11:38:50;20.30;;;12.85;;
78877;SDS011;68257;43.514;1.498;2023-03-02T11:43:54;19.55;;;13.00;;
78877;SDS011;68257;43.514;1.498;2023-03-02T11:46:24;26.55;;;14.95;;
78877;SDS011;68257;43.514;1.498;2023-03-02T11:48:52;22.53;;;13.70;;
78877;SDS011;68257;43.514;1.498;2023-03-02T11:51:26;21.10;;;13.25;;
78877;SDS011;68257;43.514;1.498;2023-03-02T11:56:29;22.40;;;14.10;;
78877;SDS011;68257;43.514;1.498;2023-03-02T11:58:58;20.98;;;13.55;;
78877;SDS011;68257;43.514;1.498;2023-03-02T12:01:25;23.03;;;13.33;;
78877;SDS011;68257;43.514;1.498;2023-03-02T12:03:51;19.38;;;13.45;;
78877;SDS011;68257;43.514;1.498;2023-03-02T12:08:47;21.77;;;13.77;;
78877;SDS011;68257;43.514;1.498;2023-03-02T12:13:43;21.80;;;13.27;;
78877;SDS011;68257;43.514;1.498;2023-03-02T12:21:42;20.25;;;12.63;;
78877;SDS011;68257;43.514;1.498;2023-03-02T12:24:25;21.60;;;12.93;;
78877;SDS011;68257;43.514;1.498;2023-03-02T12:27:38;21.60;;;13.17;;
78877;SDS011;68257;43.514;1.498;2023-03-02T12:29:50;23.20;;;12.93;;
78877;SDS011;68257;43.514;1.498;2023-03-02T12:32:24;20.00;;;12.07;;
78877;SDS011;68257;43.514;1.498;2023-03-02T12:37:52;18.83;;;12.63;;
78877;SDS011;68257;43.514;1.498;2023-03-02T12:51:11;23.45;;;14.50;;
78877;SDS011;68257;43.514;1.498;2023-03-02T12:53:44;21.27;;;13.37;;
78877;SDS011;68257;43.514;1.498;2023-03-02T12:56:19;19.15;;;13.25;;
78877;SDS011;68257;43.514;1.498;2023-03-02T12:58:47;21.95;;;14.27;;
78877;SDS011;68257;43.514;1.498;2023-03-02T13:01:17;23.83;;;14.70;;
78877;SDS011;68257;43.514;1.498;2023-03-02T13:03:46;19.83;;;13.40;;
78877;SDS011;68257;43.514;1.498;2023-03-02T13:06:15;20.65;;;13.13;;
78877;SDS011;68257;43.514;1.498;2023-03-02T13:08:45;24.30;;;14.45;;
78877;SDS011;68257;43.514;1.498;2023-03-02T13:11:12;21.30;;;14.60;;
78877;SDS011;68257;43.514;1.498;2023-03-02T13:13:45;23.98;;;14.50;;
78877;SDS011;68257;43.514;1.498;2023-03-02T13:16:25;23.90;;;13.97;;
78877;SDS011;68257;43.514;1.498;2023-03-02T13:18:54;22.65;;;14.18;;
78877;SDS011;68257;43.514;1.498;2023-03-02T13:21:34;24.40;;;15.35;;
78877;SDS011;68257;43.514;1.498;2023-03-02T13:24:01;22.83;;;14.73;;
78877;SDS011;68257;43.514;1.498;2023-03-02T13:31:38;27.83;;;17.10;;
78877;SDS011;68257;43.514;1.498;2023-03-02T13:34:04;24.63;;;15.88;;
78877;SDS011;68257;43.514;1.498;2023-03-02T13:36:32;22.17;;;15.17;;
78877;SDS011;68257;43.514;1.498;2023-03-02T13:38:59;23.65;;;15.60;;
78877;SDS011;68257;43.514;1.498;2023-03-02T13:41:29;24.33;;;14.40;;
78877;SDS011;68257;43.514;1.498;2023-03-02T13:43:56;32.13;;;17.45;;
78877;SDS011;68257;43.514;1.498;2023-03-02T13:46:32;47.40;;;22.17;;
78877;SDS011;68257;43.514;1.498;2023-03-02T13:49:00;29.52;;;17.92;;
78877;SDS011;68257;43.514;1.498;2023-03-02T13:51:31;33.22;;;18.30;;
78877;SDS011;68257;43.514;1.498;2023-03-02T13:56:50;25.85;;;16.33;;
78877;SDS011;68257;43.514;1.498;2023-03-02T13:59:17;23.70;;;16.15;;
78877;SDS011;68257;43.514;1.498;2023-03-02T14:01:44;24.08;;;16.40;;
78877;SDS011;68257;43.514;1.498;2023-03-02T14:04:10;27.63;;;17.30;;
78877;SDS011;68257;43.514;1.498;2023-03-02T14:06:40;27.67;;;16.20;;
78877;SDS011;68257;43.514;1.498;2023-03-02T14:09:05;24.17;;;14.93;;
78877;SDS011;68257;43.514;1.498;2023-03-02T14:11:33;22.25;;;14.88;;
78877;SDS011;68257;43.514;1.498;2023-03-02T14:14:01;24.37;;;15.53;;
78877;SDS011;68257;43.514;1.498;2023-03-02T14:16:27;26.25;;;16.10;;
78877;SDS011;68257;43.514;1.498;2023-03-02T14:18:53;25.05;;;16.00;;
78877;SDS011;68257;43.514;1.498;2023-03-02T14:21:21;23.55;;;15.20;;
78877;SDS011;68257;43.514;1.498;2023-03-02T14:23:48;24.13;;;15.30;;
78877;SDS011;68257;43.514;1.498;2023-03-02T14:28:47;27.60;;;16.48;;
78877;SDS011;68257;43.514;1.498;2023-03-02T14:31:12;23.50;;;15.90;;
78877;SDS011;68257;43.514;1.498;2023-03-02T14:33:37;25.03;;;15.33;;
78877;SDS011;68257;43.514;1.498;2023-03-02T14:36:03;24.35;;;16.55;;
78877;SDS011;68257;43.514;1.498;2023-03-02T14:38:30;23.27;;;15.93;;
78877;SDS011;68257;43.514;1.498;2023-03-02T14:40:56;24.52;;;15.68;;
78877;SDS011;68257;43.514;1.498;2023-03-02T14:43:21;24.23;;;16.07;;
78877;SDS011;68257;43.514;1.498;2023-03-02T14:45:49;26.20;;;16.35;;
78877;SDS011;68257;43.514;1.498;2023-03-02T14:48:16;25.10;;;16.60;;
78877;SDS011;68257;43.514;1.498;2023-03-02T14:50:42;26.90;;;17.27;;
78877;SDS011;68257;43.514;1.498;2023-03-02T14:53:11;25.02;;;16.80;;
78877;SDS011;68257;43.514;1.498;2023-03-02T14:55:39;25.63;;;17.00;;
78877;SDS011;68257;43.514;1.498;2023-03-02T14:58:12;26.03;;;17.73;;
78877;SDS011;68257;43.514;1.498;2023-03-02T15:00:40;28.02;;;18.10;;
78877;SDS011;68257;43.514;1.498;2023-03-02T15:03:07;27.65;;;18.58;;
78877;SDS011;68257;43.514;1.498;2023-03-02T15:05:36;28.65;;;17.75;;
78877;SDS011;68257;43.514;1.498;2023-03-02T15:08:01;28.93;;;18.90;;
78877;SDS011;68257;43.514;1.498;2023-03-02T15:10:27;29.27;;;18.03;;
78877;SDS011;68257;43.514;1.498;2023-03-02T15:12:52;25.57;;;16.00;;
78877;SDS011;68257;43.514;1.498;2023-03-02T15:15:17;28.47;;;18.30;;
78877;SDS011;68257;43.514;1.498;2023-03-02T15:17:43;25.48;;;17.33;;
78877;SDS011;68257;43.514;1.498;2023-03-02T15:20:12;27.60;;;17.80;;
78877;SDS011;68257;43.514;1.498;2023-03-02T15:22:39;28.17;;;17.00;;
78877;SDS011;68257;43.514;1.498;2023-03-02T15:25:04;28.57;;;16.43;;
78877;SDS011;68257;43.514;1.498;2023-03-02T15:27:30;26.67;;;17.03;;
78877;SDS011;68257;43.514;1.498;2023-03-02T15:29:55;28.83;;;17.10;;
78877;SDS011;68257;43.514;1.498;2023-03-02T15:32:20;27.95;;;18.15;;
78877;SDS011;68257;43.514;1.498;2023-03-02T15:34:46;26.97;;;17.20;;
78877;SDS011;68257;43.514;1.498;2023-03-02T15:37:12;32.60;;;19.70;;
78877;SDS011;68257;43.514;1.498;2023-03-02T15:39:38;30.38;;;18.55;;
78877;SDS011;68257;43.514;1.498;2023-03-02T15:42:04;30.27;;;17.98;;
78877;SDS011;68257;43.514;1.498;2023-03-02T15:44:30;27.30;;;16.80;;
78877;SDS011;68257;43.514;1.498;2023-03-02T15:46:56;26.40;;;17.10;;
78877;SDS011;68257;43.514;1.498;2023-03-02T15:49:22;28.20;;;18.23;;
78877;SDS011;68257;43.514;1.498;2023-03-02T15:51:51;26.50;;;17.20;;